Spittal an der Drau, Austria
Current Conditions -  °F | °C
As of 5:50 PM on Thursday 30 Oct 2014 (Local Time) from LOWK Reporting Station
Clear Clear  
Wind Chill: 48°   Ceiling: Unl
Heat Index: 48°   Visibility: 6mi
Dew Point: 37°   Wind: 3mph
Humidity: 66%   Direction: 50°NE
Pressure: 30.27"   Gusts: NA
Location:  46.8°N, 13.5°E
Report Text: LOWK 301550Z 05003KT CAVOK 09/03 Q1025 NOSIG
Loading
Personal Weather Stations






























Interactive Weather Map
Tropical Storm Tracking
New forecast layout! Learn more

10-Day Weather Forecast

Advertisements
Track Severe Weather on mobile